Clipper Saga — LAFY6 — position and weather

sailwx.info

Track history (hours):
 
Tides and Currents Weather Stations Pressure Air Temp Water Temp Dewpoint Dewpoint Depression Visibility Wind Speed Wind Dir Waves Ship Positions

Clipper Saga

Last reported at 2017-May-26 01:47 UTC. Time now 2017-May-26 05:36 UTC.
Position N 53°38' W 000°11'.

Length 89 m; draft 5.9 m.

Type: Ship (hazmat cat C). MMSI: 246657008.

Date/timePositionNaut miles runAvg speedWind from/ knotsBaromVisibWave heightAir tempDewpointWater temp
2017-May-26 01:47N 53°38' W 000°11'0 0.5
2017-May-26 01:30N 53°38' W 000°12'1 1.5
2017-May-26 01:00N 53°38' W 000°10'5 9.0
2017-May-26 00:28N 53°36' W 000°03'25 3.6
2017-May-25 17:29N 53°60' E 000°12'611.9
2017-May-25 17:00N 54°05' E 000°09'713.2
2017-May-25 16:30N 54°11' E 000°03'713.3
2017-May-25 16:00N 54°16' W 000°03'713.2
2017-May-25 15:30N 54°22' W 000°10'713.1
2017-May-25 15:00N 54°27' W 000°16'612.7
2017-May-25 14:30N 54°32' W 000°23'30 1.1
2017-May-24 10:52N 54°46' W 001°10'0 0.0
2017-May-24 10:25N 54°46' W 001°10'0 0.0
2017-May-24 09:55N 54°46' W 001°10'0 0.0
2017-May-24 09:22N 54°46' W 001°10'0 0.1
2017-May-24 08:55N 54°46' W 001°10'0 0.0
2017-May-24 08:22N 54°46' W 001°10'0 0.0
2017-May-24 07:58N 54°46' W 001°10'0 0.0
2017-May-24 07:25N 54°46' W 001°10'0 0.0
2017-May-24 06:58N 54°46' W 001°10'0 0.0
2017-May-24 06:30N 54°46' W 001°10'1 1.1
2017-May-24 06:00N 54°46' W 001°09'3 6.3
2017-May-24 05:30N 54°47' W 001°04'611.8
2017-May-24 05:00N 54°50' W 000°55'3 6.2
2017-May-24 04:30N 54°53' W 000°52'3 5.7
2017-May-24 04:00N 54°56' W 000°50'3 5.7
2017-May-24 03:30N 54°58' W 000°47'43 2.5
2017-May-23 10:25N 54°43' E 000°23'612.0
2017-May-23 09:55N 54°43' E 000°12'511.9
2017-May-23 09:31N 54°43' E 000°04'611.8
2017-May-23 09:00N 54°42' W 000°06'611.6
2017-May-23 08:31N 54°42' W 000°16'611.5
2017-May-23 08:00N 54°41' W 000°26'1811.8
2017-May-23 06:27N 54°40' W 000°58'5 0.2
2017-May-22 09:10N 54°43' W 001°05'210.5
2017-May-22 09:00N 54°44' W 001°07'2 3.9
2017-May-22 08:24N 54°46' W 001°10'0 0.0
2017-May-22 07:57N 54°46' W 001°10'0 0.0
2017-May-22 07:24N 54°46' W 001°10'0 0.0
2017-May-22 06:57N 54°46' W 001°10'0 0.0
2017-May-22 06:27N 54°46' W 001°10'0 0.0
2017-May-22 05:57N 54°46' W 001°10'0 0.0
2017-May-22 05:30N 54°46' W 001°10'0 0.0
2017-May-22 05:00N 54°46' W 001°10'0 0.0
2017-May-22 04:30N 54°46' W 001°10'0 0.0
2017-May-22 04:00N 54°46' W 001°10'0 0.0
2017-May-22 03:30N 54°46' W 001°10'0 0.0
2017-May-22 03:00N 54°46' W 001°10'0 0.0
2017-May-22 02:30N 54°46' W 001°10'0 0.0
2017-May-22 02:00N 54°46' W 001°10'0 0.0
2017-May-22 01:27N 54°46' W 001°10'0 0.0
2017-May-22 01:00N 54°46' W 001°10'0 0.0
2017-May-22 00:18N 54°46' W 001°10'0 0.0
2017-May-22 00:00N 54°46' W 001°10'0 0.0
2017-May-21 23:30N 54°46' W 001°10'0 0.0
2017-May-21 21:48N 54°46' W 001°10'0 0.0
2017-May-21 21:21N 54°46' W 001°10'0 0.0
2017-May-21 20:51N 54°46' W 001°10'0 0.0
2017-May-21 20:24N 54°46' W 001°10'0 0.0
2017-May-21 18:54N 54°46' W 001°10'0 0.0
2017-May-21 18:21N 54°46' W 001°10'0 1.4
2017-May-21 18:00N 54°46' W 001°09'2510.9
2017-May-21 15:45N 54°38' W 000°29'312.4
2017-May-21 15:30N 54°36' W 000°25'612.1
2017-May-21 15:00N 54°32' W 000°17'1211.6
2017-May-21 14:00N 54°24' W 000°02'611.1
2017-May-21 13:30N 54°20' E 000°05'510.9
2017-May-21 13:00N 54°16' E 000°10'510.8
2017-May-21 12:30N 54°11' E 000°15'510.7
2017-May-21 12:00N 54°07' E 000°19'510.7
2017-May-21 11:30N 54°02' E 000°24'5011.6
2017-May-21 07:13N 53°20' E 001°09'411.9
2017-May-21 06:54N 53°17' E 001°12'511.7
2017-May-21 06:30N 53°13' E 001°16'611.2
2017-May-21 06:00N 53°08' E 001°22'510.5
2017-May-21 05:30N 53°04' E 001°27'510.1
2017-May-21 05:00N 52°60' E 001°31'5 9.5
2017-May-21 04:30N 52°56' E 001°36'5 9.3
2017-May-21 04:00N 52°53' E 001°42'5 9.3
2017-May-21 03:30N 52°50' E 001°47'5 9.3
2017-May-21 03:00N 52°47' E 001°54'5 9.4
2017-May-21 02:30N 52°45' E 002°00'6710.9
2017-May-20 20:20N 52°08' E 003°33'410.9
2017-May-20 19:59N 52°06' E 003°38'511.2
2017-May-20 19:30N 52°05' E 003°47'510.5
2017-May-20 19:00N 52°03' E 003°54'611.3
2017-May-20 18:30N 51°60' E 004°02'612.3
2017-May-20 18:00N 51°57' E 004°11'612.0
2017-May-20 17:30N 51°54' E 004°19'1 1.2
2017-May-20 16:56N 51°54' E 004°20'0 0.0
2017-May-20 16:29N 51°54' E 004°20'0 0.0
2017-May-20 15:56N 51°54' E 004°20'0 0.0
2017-May-20 15:29N 51°54' E 004°20'0 0.0
2017-May-20 14:56N 51°54' E 004°20'0 0.0
2017-May-20 14:23N 51°54' E 004°20'0 0.0
2017-May-20 13:29N 51°54' E 004°20'0 0.0
2017-May-20 12:59N 51°54' E 004°20'0 0.0
2017-May-20 12:26N 51°54' E 004°20'0 0.0
2017-May-20 11:59N 51°54' E 004°20'0 0.0
2017-May-20 11:29N 51°54' E 004°20'0 0.0
2017-May-20 10:59N 51°54' E 004°20'0 0.0
2017-May-20 10:29N 51°54' E 004°20'0 0.0
2017-May-20 09:56N 51°54' E 004°20'0 0.0
2017-May-20 09:29N 51°54' E 004°20'0 0.0
2017-May-20 08:59N 51°54' E 004°20'0 0.0
2017-May-20 08:29N 51°54' E 004°20'0 0.0
2017-May-20 07:59N 51°54' E 004°20'0 0.0
2017-May-20 07:26N 51°54' E 004°20'0 0.0
2017-May-20 06:56N 51°54' E 004°20'0 0.0
2017-May-20 06:17N 51°54' E 004°20'0 0.0
2017-May-20 05:56N 51°54' E 004°20'0 0.0
2017-May-20 05:26N 51°54' E 004°20'0 0.0
2017-May-20 04:59N 51°54' E 004°20'0 0.0
2017-May-20 04:26N 51°54' E 004°20'0 0.0
2017-May-20 03:56N 51°54' E 004°20'0 0.0
2017-May-20 03:29N 51°54' E 004°20'0 0.0
2017-May-20 02:59N 51°54' E 004°20'0 0.0
2017-May-20 02:23N 51°54' E 004°20'0 0.0
2017-May-20 01:59N 51°54' E 004°20'0 0.0
2017-May-20 01:23N 51°54' E 004°20'0 0.0
2017-May-20 00:47N 51°54' E 004°20'0 0.0
2017-May-20 00:29N 51°54' E 004°20'0 0.0
2017-May-19 23:59N 51°54' E 004°20'0 0.0
2017-May-19 23:26N 51°54' E 004°20'0 0.0
2017-May-19 22:35N 51°54' E 004°20'0 0.0
2017-May-19 22:29N 51°54' E 004°20'0 0.0
2017-May-19 21:59N 51°54' E 004°20'0 0.0
2017-May-19 21:29N 51°54' E 004°20'0 0.0
2017-May-19 20:59N 51°54' E 004°20'0 0.0
2017-May-19 20:26N 51°54' E 004°20'0 0.0
2017-May-19 19:59N 51°54' E 004°20'0 0.0
2017-May-19 19:29N 51°54' E 004°20'0 0.0
2017-May-19 18:56N 51°54' E 004°20'0 0.0
2017-May-19 18:29N 51°54' E 004°20'0 0.0
2017-May-19 17:56N 51°54' E 004°20'0 0.0
2017-May-19 17:26N 51°54' E 004°20'0 0.0
2017-May-19 16:59N 51°54' E 004°20'0 0.0
2017-May-19 16:20N 51°54' E 004°20'0 0.0
2017-May-19 15:59N 51°54' E 004°20'0 0.0
2017-May-19 15:29N 51°54' E 004°20'0 0.0
2017-May-19 14:59N 51°54' E 004°20'0 0.0
2017-May-19 13:59N 51°54' E 004°20'0 0.0
2017-May-19 13:26N 51°54' E 004°20'0 0.0
2017-May-19 12:35N 51°54' E 004°20'0 0.0
2017-May-19 12:17N 51°54' E 004°20'0 0.0
2017-May-19 11:50N 51°54' E 004°20'0 0.0
2017-May-19 11:26N 51°54' E 004°20'0 0.0
2017-May-19 10:59N 51°54' E 004°20'0 0.0
2017-May-19 10:29N 51°54' E 004°20'0 0.2
2017-May-19 10:00N 51°54' E 004°21'3 6.7
2017-May-19 09:30N 51°55' E 004°15'612.1
2017-May-19 09:00N 51°58' E 004°08'612.0
2017-May-19 08:30N 52°00' E 003°58'510.8
2017-May-19 08:00N 52°01' E 003°50'5 9.9
2017-May-19 07:30N 52°06' E 003°46'4 8.7
2017-May-19 07:00N 52°10' E 003°46'5 9.2
2017-May-19 06:30N 52°15' E 003°47'5 9.6
2017-May-19 05:56N 52°20' E 003°48'5 9.9
2017-May-19 05:23N 52°26' E 003°49'6 9.9
2017-May-19 04:47N 52°32' E 003°52'3 9.7
2017-May-19 04:28N 52°34' E 003°52'510.2
2017-May-19 04:00N 52°39' E 003°54'510.4
2017-May-19 03:30N 52°44' E 003°56'2610.7
2017-May-19 01:06N 53°06' E 004°17'411.8
2017-May-19 00:46N 53°09' E 004°22'33011.7
2017-May-17 20:33N 57°49' E 009°31'711.9
2017-May-17 19:59N 57°49' E 009°44'1812.1
2017-May-17 18:32N 57°49' E 010°17'112.3
2017-May-17 18:24N 57°49' E 010°20'511.7
2017-May-17 17:59N 57°49' E 010°29'611.6
2017-May-17 17:30N 57°49' E 010°39'611.2
2017-May-17 17:00N 57°48' E 010°50'612.1
2017-May-17 16:29N 57°44' E 010°59'612.6
2017-May-17 16:00N 57°41' E 011°09'612.7
2017-May-17 15:30N 57°38' E 011°19'612.3
2017-May-17 15:00N 57°35' E 011°29'6 6.3
2017-May-17 14:00N 57°36' E 011°41'0 0.0
2017-May-17 13:30N 57°36' E 011°41'0 0.0
2017-May-17 13:00N 57°36' E 011°41'0 0.0
2017-May-17 12:30N 57°36' E 011°41'0 0.0
2017-May-17 12:00N 57°36' E 011°41'0 0.0
2017-May-17 11:30N 57°36' E 011°41'0 0.0
2017-May-17 11:00N 57°36' E 011°41'0 0.0
2017-May-17 10:30N 57°36' E 011°41'0 0.0
2017-May-17 10:00N 57°36' E 011°41'0 0.0
2017-May-17 09:30N 57°36' E 011°41'0 0.0
2017-May-17 09:00N 57°36' E 011°41'0 0.0
2017-May-17 08:30N 57°36' E 011°41'0 0.0
2017-May-17 08:00N 57°36' E 011°41'0 0.0
2017-May-17 07:30N 57°36' E 011°41'0 0.0
2017-May-17 07:00N 57°36' E 011°41'0 0.0
2017-May-17 06:30N 57°36' E 011°41'0 0.0
2017-May-17 05:57N 57°36' E 011°41'0 0.0
2017-May-17 05:30N 57°36' E 011°41'0 0.0
2017-May-17 05:00N 57°36' E 011°41'0 0.0
2017-May-17 04:30N 57°36' E 011°41'0 0.0
2017-May-17 04:00N 57°36' E 011°41'0 0.0
2017-May-17 03:27N 57°36' E 011°41'0 0.0
2017-May-17 03:00N 57°36' E 011°41'0 0.0
2017-May-17 02:30N 57°36' E 011°41'0 0.0
2017-May-17 02:00N 57°36' E 011°41'0 0.0
2017-May-17 01:30N 57°36' E 011°41'0 0.0
2017-May-17 01:00N 57°36' E 011°41'0 0.0
2017-May-17 00:30N 57°36' E 011°41'0 0.0
2017-May-17 00:00N 57°36' E 011°41'0 0.0
2017-May-16 23:30N 57°36' E 011°41'0 0.0
2017-May-16 23:00N 57°36' E 011°41'0 0.0
2017-May-16 22:30N 57°36' E 011°41'0 0.0
2017-May-16 22:00N 57°36' E 011°41'0 0.0
2017-May-16 21:30N 57°36' E 011°41'0 0.0
2017-May-16 21:00N 57°36' E 011°41'0 0.0
2017-May-16 20:30N 57°36' E 011°41'0 0.0
2017-May-16 20:00N 57°36' E 011°41'0 0.0
2017-May-16 19:27N 57°36' E 011°41'0 0.0
2017-May-16 19:00N 57°36' E 011°41'0 0.0
2017-May-16 18:30N 57°36' E 011°41'0 0.0
2017-May-16 18:00N 57°36' E 011°41'0 0.0
2017-May-16 17:30N 57°36' E 011°41'0 0.0
2017-May-16 17:00N 57°36' E 011°41'0 0.0
2017-May-16 16:30N 57°36' E 011°41'0 0.0
2017-May-16 16:00N 57°36' E 011°41'0 0.0
2017-May-16 15:30N 57°36' E 011°41'0 0.0
2017-May-16 15:00N 57°36' E 011°41'0 0.0
2017-May-16 14:00N 57°36' E 011°41'0 0.0
2017-May-16 13:30N 57°36' E 011°41'0 0.0
2017-May-16 13:00N 57°36' E 011°41'0 0.0
2017-May-16 12:27N 57°36' E 011°41'0 0.0
2017-May-16 12:00N 57°36' E 011°41'0 0.0
2017-May-16 11:30N 57°36' E 011°41'0 0.0
2017-May-16 11:00N 57°36' E 011°41'0 0.0
2017-May-16 10:30N 57°36' E 011°41'0 0.0
2017-May-16 10:00N 57°36' E 011°41'0 0.0
2017-May-16 09:24N 57°36' E 011°41'0 0.0
2017-May-16 09:00N 57°36' E 011°41'0 0.0
2017-May-16 08:30N 57°36' E 011°41'0 0.0
2017-May-16 08:00N 57°36' E 011°41'0 0.0
2017-May-16 07:30N 57°36' E 011°41'0 0.0
2017-May-16 07:00N 57°36' E 011°41'0 0.0
2017-May-16 06:30N 57°36' E 011°41'0 0.0
2017-May-16 06:00N 57°36' E 011°41'0 0.0
2017-May-16 05:27N 57°36' E 011°41'0 0.0
2017-May-16 05:00N 57°36' E 011°41'0 0.0
2017-May-16 04:30N 57°36' E 011°41'0 0.0
2017-May-16 04:00N 57°36' E 011°41'0 0.0
2017-May-16 03:30N 57°36' E 011°41'0 0.0
2017-May-16 02:57N 57°36' E 011°41'0 0.0
2017-May-16 02:30N 57°36' E 011°41'0 0.0
2017-May-16 02:00N 57°36' E 011°41'  
Track history (hours):
 
Tides and Currents Weather Stations Pressure Air Temp Water Temp Dewpoint Dewpoint Depression Visibility Wind Speed Wind Dir Waves Ship Positions

Clipper Saga

Last reported at 2017-May-26 01:47 UTC. Time now 2017-May-26 05:36 UTC.
Position N 53°38' W 000°11'.

Length 89 m; draft 5.9 m.

Type: Ship (hazmat cat C). MMSI: 246657008.

Date/timePositionNaut miles runAvg speedWind from/ knotsBaromVisibWave heightAir tempDewpointWater temp
2017-May-26 01:47N 53°38' W 000°11'0 0.5
2017-May-26 01:30N 53°38' W 000°12'1 1.5
2017-May-26 01:00N 53°38' W 000°10'5 9.0
2017-May-26 00:28N 53°36' W 000°03'25 3.6
2017-May-25 17:29N 53°60' E 000°12'611.9
2017-May-25 17:00N 54°05' E 000°09'713.2
2017-May-25 16:30N 54°11' E 000°03'713.3
2017-May-25 16:00N 54°16' W 000°03'713.2
2017-May-25 15:30N 54°22' W 000°10'713.1
2017-May-25 15:00N 54°27' W 000°16'612.7
2017-May-25 14:30N 54°32' W 000°23'30 1.1
2017-May-24 10:52N 54°46' W 001°10'0 0.0
2017-May-24 10:25N 54°46' W 001°10'0 0.0
2017-May-24 09:55N 54°46' W 001°10'0 0.0
2017-May-24 09:22N 54°46' W 001°10'0 0.1
2017-May-24 08:55N 54°46' W 001°10'0 0.0
2017-May-24 08:22N 54°46' W 001°10'0 0.0
2017-May-24 07:58N 54°46' W 001°10'0 0.0
2017-May-24 07:25N 54°46' W 001°10'0 0.0
2017-May-24 06:58N 54°46' W 001°10'0 0.0
2017-May-24 06:30N 54°46' W 001°10'1 1.1
2017-May-24 06:00N 54°46' W 001°09'3 6.3
2017-May-24 05:30N 54°47' W 001°04'611.8
2017-May-24 05:00N 54°50' W 000°55'3 6.2
2017-May-24 04:30N 54°53' W 000°52'3 5.7
2017-May-24 04:00N 54°56' W 000°50'3 5.7
2017-May-24 03:30N 54°58' W 000°47'43 2.5
2017-May-23 10:25N 54°43' E 000°23'612.0
2017-May-23 09:55N 54°43' E 000°12'511.9
2017-May-23 09:31N 54°43' E 000°04'611.8
2017-May-23 09:00N 54°42' W 000°06'611.6
2017-May-23 08:31N 54°42' W 000°16'611.5
2017-May-23 08:00N 54°41' W 000°26'1811.8
2017-May-23 06:27N 54°40' W 000°58'5 0.2
2017-May-22 09:10N 54°43' W 001°05'210.5
2017-May-22 09:00N 54°44' W 001°07'2 3.9
2017-May-22 08:24N 54°46' W 001°10'0 0.0
2017-May-22 07:57N 54°46' W 001°10'0 0.0
2017-May-22 07:24N 54°46' W 001°10'0 0.0
2017-May-22 06:57N 54°46' W 001°10'0 0.0
2017-May-22 06:27N 54°46' W 001°10'0 0.0
2017-May-22 05:57N 54°46' W 001°10'0 0.0
2017-May-22 05:30N 54°46' W 001°10'0 0.0
2017-May-22 05:00N 54°46' W 001°10'0 0.0
2017-May-22 04:30N 54°46' W 001°10'0 0.0
2017-May-22 04:00N 54°46' W 001°10'0 0.0
2017-May-22 03:30N 54°46' W 001°10'0 0.0
2017-May-22 03:00N 54°46' W 001°10'0 0.0
2017-May-22 02:30N 54°46' W 001°10'0 0.0
2017-May-22 02:00N 54°46' W 001°10'0 0.0
2017-May-22 01:27N 54°46' W 001°10'0 0.0
2017-May-22 01:00N 54°46' W 001°10'0 0.0
2017-May-22 00:18N 54°46' W 001°10'0 0.0
2017-May-22 00:00N 54°46' W 001°10'0 0.0
2017-May-21 23:30N 54°46' W 001°10'0 0.0
2017-May-21 21:48N 54°46' W 001°10'0 0.0
2017-May-21 21:21N 54°46' W 001°10'0 0.0
2017-May-21 20:51N 54°46' W 001°10'0 0.0
2017-May-21 20:24N 54°46' W 001°10'0 0.0
2017-May-21 18:54N 54°46' W 001°10'0 0.0
2017-May-21 18:21N 54°46' W 001°10'0 1.4
2017-May-21 18:00N 54°46' W 001°09'2510.9
2017-May-21 15:45N 54°38' W 000°29'312.4
2017-May-21 15:30N 54°36' W 000°25'612.1
2017-May-21 15:00N 54°32' W 000°17'1211.6
2017-May-21 14:00N 54°24' W 000°02'611.1
2017-May-21 13:30N 54°20' E 000°05'510.9
2017-May-21 13:00N 54°16' E 000°10'510.8
2017-May-21 12:30N 54°11' E 000°15'510.7
2017-May-21 12:00N 54°07' E 000°19'510.7
2017-May-21 11:30N 54°02' E 000°24'5011.6
2017-May-21 07:13N 53°20' E 001°09'411.9
2017-May-21 06:54N 53°17' E 001°12'511.7
2017-May-21 06:30N 53°13' E 001°16'611.2
2017-May-21 06:00N 53°08' E 001°22'510.5
2017-May-21 05:30N 53°04' E 001°27'510.1
2017-May-21 05:00N 52°60' E 001°31'5 9.5
2017-May-21 04:30N 52°56' E 001°36'5 9.3
2017-May-21 04:00N 52°53' E 001°42'5 9.3
2017-May-21 03:30N 52°50' E 001°47'5 9.3
2017-May-21 03:00N 52°47' E 001°54'5 9.4
2017-May-21 02:30N 52°45' E 002°00'6710.9
2017-May-20 20:20N 52°08' E 003°33'410.9
2017-May-20 19:59N 52°06' E 003°38'511.2
2017-May-20 19:30N 52°05' E 003°47'510.5
2017-May-20 19:00N 52°03' E 003°54'611.3
2017-May-20 18:30N 51°60' E 004°02'612.3
2017-May-20 18:00N 51°57' E 004°11'612.0
2017-May-20 17:30N 51°54' E 004°19'1 1.2
2017-May-20 16:56N 51°54' E 004°20'0 0.0
2017-May-20 16:29N 51°54' E 004°20'0 0.0
2017-May-20 15:56N 51°54' E 004°20'0 0.0
2017-May-20 15:29N 51°54' E 004°20'0 0.0
2017-May-20 14:56N 51°54' E 004°20'0 0.0
2017-May-20 14:23N 51°54' E 004°20'0 0.0
2017-May-20 13:29N 51°54' E 004°20'0 0.0
2017-May-20 12:59N 51°54' E 004°20'0 0.0
2017-May-20 12:26N 51°54' E 004°20'0 0.0
2017-May-20 11:59N 51°54' E 004°20'0 0.0
2017-May-20 11:29N 51°54' E 004°20'0 0.0
2017-May-20 10:59N 51°54' E 004°20'0 0.0
2017-May-20 10:29N 51°54' E 004°20'0 0.0
2017-May-20 09:56N 51°54' E 004°20'0 0.0
2017-May-20 09:29N 51°54' E 004°20'0 0.0
2017-May-20 08:59N 51°54' E 004°20'0 0.0
2017-May-20 08:29N 51°54' E 004°20'0 0.0
2017-May-20 07:59N 51°54' E 004°20'0 0.0
2017-May-20 07:26N 51°54' E 004°20'0 0.0
2017-May-20 06:56N 51°54' E 004°20'0 0.0
2017-May-20 06:17N 51°54' E 004°20'0 0.0
2017-May-20 05:56N 51°54' E 004°20'0 0.0
2017-May-20 05:26N 51°54' E 004°20'0 0.0
2017-May-20 04:59N 51°54' E 004°20'0 0.0
2017-May-20 04:26N 51°54' E 004°20'0 0.0
2017-May-20 03:56N 51°54' E 004°20'0 0.0
2017-May-20 03:29N 51°54' E 004°20'0 0.0
2017-May-20 02:59N 51°54' E 004°20'0 0.0
2017-May-20 02:23N 51°54' E 004°20'0 0.0
2017-May-20 01:59N 51°54' E 004°20'0 0.0
2017-May-20 01:23N 51°54' E 004°20'0 0.0
2017-May-20 00:47N 51°54' E 004°20'0 0.0
2017-May-20 00:29N 51°54' E 004°20'0 0.0
2017-May-19 23:59N 51°54' E 004°20'0 0.0
2017-May-19 23:26N 51°54' E 004°20'0 0.0
2017-May-19 22:35N 51°54' E 004°20'0 0.0
2017-May-19 22:29N 51°54' E 004°20'0 0.0
2017-May-19 21:59N 51°54' E 004°20'0 0.0
2017-May-19 21:29N 51°54' E 004°20'0 0.0
2017-May-19 20:59N 51°54' E 004°20'0 0.0
2017-May-19 20:26N 51°54' E 004°20'0 0.0
2017-May-19 19:59N 51°54' E 004°20'0 0.0
2017-May-19 19:29N 51°54' E 004°20'0 0.0
2017-May-19 18:56N 51°54' E 004°20'0 0.0
2017-May-19 18:29N 51°54' E 004°20'0 0.0
2017-May-19 17:56N 51°54' E 004°20'0 0.0
2017-May-19 17:26N 51°54' E 004°20'0 0.0
2017-May-19 16:59N 51°54' E 004°20'0 0.0
2017-May-19 16:20N 51°54' E 004°20'0 0.0
2017-May-19 15:59N 51°54' E 004°20'0 0.0
2017-May-19 15:29N 51°54' E 004°20'0 0.0
2017-May-19 14:59N 51°54' E 004°20'0 0.0
2017-May-19 13:59N 51°54' E 004°20'0 0.0
2017-May-19 13:26N 51°54' E 004°20'0 0.0
2017-May-19 12:35N 51°54' E 004°20'0 0.0
2017-May-19 12:17N 51°54' E 004°20'0 0.0
2017-May-19 11:50N 51°54' E 004°20'0 0.0
2017-May-19 11:26N 51°54' E 004°20'0 0.0
2017-May-19 10:59N 51°54' E 004°20'0 0.0
2017-May-19 10:29N 51°54' E 004°20'0 0.2
2017-May-19 10:00N 51°54' E 004°21'3 6.7
2017-May-19 09:30N 51°55' E 004°15'612.1
2017-May-19 09:00N 51°58' E 004°08'612.0
2017-May-19 08:30N 52°00' E 003°58'510.8
2017-May-19 08:00N 52°01' E 003°50'5 9.9
2017-May-19 07:30N 52°06' E 003°46'4 8.7
2017-May-19 07:00N 52°10' E 003°46'5 9.2
2017-May-19 06:30N 52°15' E 003°47'5 9.6
2017-May-19 05:56N 52°20' E 003°48'5 9.9
2017-May-19 05:23N 52°26' E 003°49'6 9.9
2017-May-19 04:47N 52°32' E 003°52'3 9.7
2017-May-19 04:28N 52°34' E 003°52'510.2
2017-May-19 04:00N 52°39' E 003°54'510.4
2017-May-19 03:30N 52°44' E 003°56'2610.7
2017-May-19 01:06N 53°06' E 004°17'411.8
2017-May-19 00:46N 53°09' E 004°22'33011.7
2017-May-17 20:33N 57°49' E 009°31'711.9
2017-May-17 19:59N 57°49' E 009°44'1812.1
2017-May-17 18:32N 57°49' E 010°17'112.3
2017-May-17 18:24N 57°49' E 010°20'511.7
2017-May-17 17:59N 57°49' E 010°29'611.6
2017-May-17 17:30N 57°49' E 010°39'611.2
2017-May-17 17:00N 57°48' E 010°50'612.1
2017-May-17 16:29N 57°44' E 010°59'612.6
2017-May-17 16:00N 57°41' E 011°09'612.7
2017-May-17 15:30N 57°38' E 011°19'612.3
2017-May-17 15:00N 57°35' E 011°29'6 6.3
2017-May-17 14:00N 57°36' E 011°41'0 0.0
2017-May-17 13:30N 57°36' E 011°41'0 0.0
2017-May-17 13:00N 57°36' E 011°41'0 0.0
2017-May-17 12:30N 57°36' E 011°41'0 0.0
2017-May-17 12:00N 57°36' E 011°41'0 0.0
2017-May-17 11:30N 57°36' E 011°41'0 0.0
2017-May-17 11:00N 57°36' E 011°41'0 0.0
2017-May-17 10:30N 57°36' E 011°41'0 0.0
2017-May-17 10:00N 57°36' E 011°41'0 0.0
2017-May-17 09:30N 57°36' E 011°41'0 0.0
2017-May-17 09:00N 57°36' E 011°41'0 0.0
2017-May-17 08:30N 57°36' E 011°41'0 0.0
2017-May-17 08:00N 57°36' E 011°41'0 0.0
2017-May-17 07:30N 57°36' E 011°41'0 0.0
2017-May-17 07:00N 57°36' E 011°41'0 0.0
2017-May-17 06:30N 57°36' E 011°41'0 0.0
2017-May-17 05:57N 57°36' E 011°41'0 0.0
2017-May-17 05:30N 57°36' E 011°41'0 0.0
2017-May-17 05:00N 57°36' E 011°41'0 0.0
2017-May-17 04:30N 57°36' E 011°41'0 0.0
2017-May-17 04:00N 57°36' E 011°41'0 0.0
2017-May-17 03:27N 57°36' E 011°41'0 0.0
2017-May-17 03:00N 57°36' E 011°41'0 0.0
2017-May-17 02:30N 57°36' E 011°41'0 0.0
2017-May-17 02:00N 57°36' E 011°41'0 0.0
2017-May-17 01:30N 57°36' E 011°41'0 0.0
2017-May-17 01:00N 57°36' E 011°41'0 0.0
2017-May-17 00:30N 57°36' E 011°41'0 0.0
2017-May-17 00:00N 57°36' E 011°41'0 0.0
2017-May-16 23:30N 57°36' E 011°41'0 0.0
2017-May-16 23:00N 57°36' E 011°41'0 0.0
2017-May-16 22:30N 57°36' E 011°41'0 0.0
2017-May-16 22:00N 57°36' E 011°41'0 0.0
2017-May-16 21:30N 57°36' E 011°41'0 0.0
2017-May-16 21:00N 57°36' E 011°41'0 0.0
2017-May-16 20:30N 57°36' E 011°41'0 0.0
2017-May-16 20:00N 57°36' E 011°41'0 0.0
2017-May-16 19:27N 57°36' E 011°41'0 0.0
2017-May-16 19:00N 57°36' E 011°41'0 0.0
2017-May-16 18:30N 57°36' E 011°41'0 0.0
2017-May-16 18:00N 57°36' E 011°41'0 0.0
2017-May-16 17:30N 57°36' E 011°41'0 0.0
2017-May-16 17:00N 57°36' E 011°41'0 0.0
2017-May-16 16:30N 57°36' E 011°41'0 0.0
2017-May-16 16:00N 57°36' E 011°41'0 0.0
2017-May-16 15:30N 57°36' E 011°41'0 0.0
2017-May-16 15:00N 57°36' E 011°41'0 0.0
2017-May-16 14:00N 57°36' E 011°41'0 0.0
2017-May-16 13:30N 57°36' E 011°41'0 0.0
2017-May-16 13:00N 57°36' E 011°41'0 0.0
2017-May-16 12:27N 57°36' E 011°41'0 0.0
2017-May-16 12:00N 57°36' E 011°41'0 0.0
2017-May-16 11:30N 57°36' E 011°41'0 0.0
2017-May-16 11:00N 57°36' E 011°41'0 0.0
2017-May-16 10:30N 57°36' E 011°41'0 0.0
2017-May-16 10:00N 57°36' E 011°41'0 0.0
2017-May-16 09:24N 57°36' E 011°41'0 0.0
2017-May-16 09:00N 57°36' E 011°41'0 0.0
2017-May-16 08:30N 57°36' E 011°41'0 0.0
2017-May-16 08:00N 57°36' E 011°41'0 0.0
2017-May-16 07:30N 57°36' E 011°41'0 0.0
2017-May-16 07:00N 57°36' E 011°41'0 0.0
2017-May-16 06:30N 57°36' E 011°41'0 0.0
2017-May-16 06:00N 57°36' E 011°41'0 0.0
2017-May-16 05:27N 57°36' E 011°41'0 0.0
2017-May-16 05:00N 57°36' E 011°41'0 0.0
2017-May-16 04:30N 57°36' E 011°41'0 0.0
2017-May-16 04:00N 57°36' E 011°41'0 0.0
2017-May-16 03:30N 57°36' E 011°41'0 0.0
2017-May-16 02:57N 57°36' E 011°41'0 0.0
2017-May-16 02:30N 57°36' E 011°41'0 0.0
2017-May-16 02:00N 57°36' E 011°41'  

Dump ship's entire track history